sensor_id;sensor_type;location;lat;lon;timestamp;pressure;altitude;pressure_sealevel;temperature;humidity
5298;BME280;14738;42.668;23.250;2023-02-02T00:01:50;48561.03;;;-141.90;39.43
5298;BME280;14738;42.668;23.250;2023-02-02T00:04:24;48517.34;;;-141.90;39.26
5298;BME280;14738;42.668;23.250;2023-02-02T00:06:50;48517.34;;;-141.90;39.50
5298;BME280;14738;42.668;23.250;2023-02-02T00:09:17;48553.09;;;-141.90;39.78
5298;BME280;14738;42.668;23.250;2023-02-02T00:11:44;48549.13;;;-141.90;39.77
5298;BME280;14738;42.668;23.250;2023-02-02T00:14:10;48553.09;;;-141.90;40.37
5298;BME280;14738;42.668;23.250;2023-02-02T00:16:37;48531.25;;;-141.90;39.92
5298;BME280;14738;42.668;23.250;2023-02-02T00:19:09;48574.94;;;-141.90;39.65
5298;BME280;14738;42.668;23.250;2023-02-02T00:21:35;48535.22;;;-141.90;39.82
5298;BME280;14738;42.668;23.250;2023-02-02T00:24:03;48553.09;;;-141.90;40.46
5298;BME280;14738;42.668;23.250;2023-02-02T00:26:28;48517.34;;;-141.90;40.40
5298;BME280;14738;42.668;23.250;2023-02-02T00:28:53;48559.06;;;-141.90;40.72
5298;BME280;14738;42.668;23.250;2023-02-02T00:31:19;48561.03;;;-141.90;40.60
5298;BME280;14738;42.668;23.250;2023-02-02T00:33:45;48557.06;;;-141.90;40.39
5298;BME280;14738;42.668;23.250;2023-02-02T00:36:11;48537.22;;;-141.90;40.21
5298;BME280;14738;42.668;23.250;2023-02-02T00:38:36;48545.16;;;-141.90;40.46
5298;BME280;14738;42.668;23.250;2023-02-02T00:41:02;48521.34;;;-141.90;40.58
5298;BME280;14738;42.668;23.250;2023-02-02T00:43:28;48535.22;;;-141.90;40.62
5298;BME280;14738;42.668;23.250;2023-02-02T00:45:54;48537.22;;;-141.90;40.72
5298;BME280;14738;42.668;23.250;2023-02-02T00:48:20;48555.09;;;-141.90;41.55
5298;BME280;14738;42.668;23.250;2023-02-02T00:50:46;48561.03;;;-141.90;42.55
5298;BME280;14738;42.668;23.250;2023-02-02T00:53:11;48525.31;;;-141.90;42.24
5298;BME280;14738;42.668;23.250;2023-02-02T00:55:36;48563.03;;;-141.90;42.16
5298;BME280;14738;42.668;23.250;2023-02-02T00:58:02;48537.22;;;-141.90;41.81
5298;BME280;14738;42.668;23.250;2023-02-02T01:00:27;48559.06;;;-141.90;41.97
5298;BME280;14738;42.668;23.250;2023-02-02T01:02:53;48565.00;;;-141.90;41.20
5298;BME280;14738;42.668;23.250;2023-02-02T01:05:20;48545.16;;;-141.90;40.66
5298;BME280;14738;42.668;23.250;2023-02-02T01:07:46;48533.25;;;-141.90;41.75
5298;BME280;14738;42.668;23.250;2023-02-02T01:10:14;48557.06;;;-141.90;41.80
5298;BME280;14738;42.668;23.250;2023-02-02T01:12:41;48559.06;;;-141.90;42.13
5298;BME280;14738;42.668;23.250;2023-02-02T01:15:10;48541.19;;;-141.90;42.03
5298;BME280;14738;42.668;23.250;2023-02-02T01:17:36;48590.81;;;-141.90;42.08
5298;BME280;14738;42.668;23.250;2023-02-02T01:20:03;48565.00;;;-141.90;42.38
5298;BME280;14738;42.668;23.250;2023-02-02T01:22:29;48527.28;;;-141.90;42.77
5298;BME280;14738;42.668;23.250;2023-02-02T01:24:54;48553.09;;;-141.90;42.21
5298;BME280;14738;42.668;23.250;2023-02-02T01:27:19;48561.03;;;-141.90;43.08
5298;BME280;14738;42.668;23.250;2023-02-02T01:29:45;48557.06;;;-141.90;43.27
5298;BME280;14738;42.668;23.250;2023-02-02T01:32:10;48580.88;;;-141.90;43.34
5298;BME280;14738;42.668;23.250;2023-02-02T01:34:36;48572.94;;;-141.90;44.02
5298;BME280;14738;42.668;23.250;2023-02-02T01:37:06;48557.06;;;-141.90;44.34
5298;BME280;14738;42.668;23.250;2023-02-02T01:39:31;48549.13;;;-141.90;44.91
5298;BME280;14738;42.668;23.250;2023-02-02T01:41:57;48541.19;;;-141.90;45.53
5298;BME280;14738;42.668;23.250;2023-02-02T01:47:15;48553.09;;;-141.90;45.46
5298;BME280;14738;42.668;23.250;2023-02-02T01:49:41;48576.91;;;-141.90;45.11
5298;BME280;14738;42.668;23.250;2023-02-02T01:52:07;48533.25;;;-141.90;45.08
5298;BME280;14738;42.668;23.250;2023-02-02T01:54:37;48568.97;;;-141.90;45.45
5298;BME280;14738;42.668;23.250;2023-02-02T01:57:21;48549.13;;;-141.90;45.77
5298;BME280;14738;42.668;23.250;2023-02-02T01:59:50;48561.03;;;-141.90;46.17
5298;BME280;14738;42.668;23.250;2023-02-02T02:02:16;48561.03;;;-141.90;46.04
5298;BME280;14738;42.668;23.250;2023-02-02T02:04:42;48555.09;;;-141.90;46.16
5298;BME280;14738;42.668;23.250;2023-02-02T02:07:08;48568.97;;;-141.90;46.46
5298;BME280;14738;42.668;23.250;2023-02-02T02:09:33;48582.88;;;-141.90;47.26
5298;BME280;14738;42.668;23.250;2023-02-02T02:11:59;48584.84;;;-141.90;47.21
5298;BME280;14738;42.668;23.250;2023-02-02T02:14:24;48576.91;;;-141.90;47.16
5298;BME280;14738;42.668;23.250;2023-02-02T02:40:01;48557.06;;;-141.90;49.02
5298;BME280;14738;42.668;23.250;2023-02-02T02:42:32;48576.91;;;-141.90;48.56
5298;BME280;14738;42.668;23.250;2023-02-02T02:45:00;48561.03;;;-141.90;48.67
5298;BME280;14738;42.668;23.250;2023-02-02T02:47:29;48570.97;;;-141.90;48.79
5298;BME280;14738;42.668;23.250;2023-02-02T02:49:55;48553.09;;;-141.90;48.25
5298;BME280;14738;42.668;23.250;2023-02-02T02:52:21;48557.06;;;-141.90;48.13
5298;BME280;14738;42.668;23.250;2023-02-02T02:54:50;48567.00;;;-141.90;47.83
5298;BME280;14738;42.668;23.250;2023-02-02T03:02:58;48588.84;;;-141.90;48.08
5298;BME280;14738;42.668;23.250;2023-02-02T03:10:43;48568.97;;;-141.90;48.24
5298;BME280;14738;42.668;23.250;2023-02-02T03:13:11;48568.97;;;-141.90;48.22
5298;BME280;14738;42.668;23.250;2023-02-02T03:15:43;48570.97;;;-141.90;48.00
5298;BME280;14738;42.668;23.250;2023-02-02T03:18:11;48592.81;;;-141.90;47.95
5298;BME280;14738;42.668;23.250;2023-02-02T03:20:38;48588.84;;;-141.90;48.58
5298;BME280;14738;42.668;23.250;2023-02-02T03:23:03;48586.84;;;-141.90;48.52
5298;BME280;14738;42.668;23.250;2023-02-02T03:25:28;48574.94;;;-141.90;48.64
5298;BME280;14738;42.668;23.250;2023-02-02T03:27:54;48590.81;;;-141.90;48.60
5298;BME280;14738;42.668;23.250;2023-02-02T03:30:21;48557.06;;;-141.90;48.19
5298;BME280;14738;42.668;23.250;2023-02-02T03:32:46;48557.06;;;-141.90;47.80
5298;BME280;14738;42.668;23.250;2023-02-02T03:35:12;48584.84;;;-141.90;47.75
5298;BME280;14738;42.668;23.250;2023-02-02T03:37:37;48572.94;;;-141.90;47.50
5298;BME280;14738;42.668;23.250;2023-02-02T03:40:04;48561.03;;;-141.90;47.89
5298;BME280;14738;42.668;23.250;2023-02-02T03:42:30;48586.84;;;-141.90;48.30
5298;BME280;14738;42.668;23.250;2023-02-02T03:44:55;48567.00;;;-141.90;48.25
5298;BME280;14738;42.668;23.250;2023-02-02T03:47:21;48553.09;;;-141.90;47.93
5298;BME280;14738;42.668;23.250;2023-02-02T03:49:46;48572.94;;;-141.90;48.42
5298;BME280;14738;42.668;23.250;2023-02-02T03:52:11;48553.09;;;-141.90;48.11
5298;BME280;14738;42.668;23.250;2023-02-02T03:54:37;48572.94;;;-141.90;48.24
5298;BME280;14738;42.668;23.250;2023-02-02T03:57:02;48588.84;;;-141.90;48.25
5298;BME280;14738;42.668;23.250;2023-02-02T03:59:28;48572.94;;;-141.90;48.38
5298;BME280;14738;42.668;23.250;2023-02-02T04:01:53;48565.00;;;-141.90;48.73
5298;BME280;14738;42.668;23.250;2023-02-02T04:04:18;48578.91;;;-141.90;48.12
5298;BME280;14738;42.668;23.250;2023-02-02T04:06:44;48576.91;;;-141.90;47.66
5298;BME280;14738;42.668;23.250;2023-02-02T04:09:09;48537.22;;;-141.90;48.02
5298;BME280;14738;42.668;23.250;2023-02-02T04:11:34;48570.97;;;-141.90;48.13
5298;BME280;14738;42.668;23.250;2023-02-02T04:14:00;48527.28;;;-141.90;47.91
5298;BME280;14738;42.668;23.250;2023-02-02T04:16:25;48572.94;;;-141.90;48.11
5298;BME280;14738;42.668;23.250;2023-02-02T04:18:51;48580.88;;;-141.90;48.54
5298;BME280;14738;42.668;23.250;2023-02-02T04:21:16;48545.16;;;-141.90;48.18
5298;BME280;14738;42.668;23.250;2023-02-02T04:23:41;48555.09;;;-141.90;47.62
5298;BME280;14738;42.668;23.250;2023-02-02T04:26:07;48557.06;;;-141.90;47.69
5298;BME280;14738;42.668;23.250;2023-02-02T04:28:33;48576.91;;;-141.90;48.38
5298;BME280;14738;42.668;23.250;2023-02-02T04:30:59;48588.84;;;-141.90;47.68
5298;BME280;14738;42.668;23.250;2023-02-02T04:33:26;48551.09;;;-141.90;47.49
5298;BME280;14738;42.668;23.250;2023-02-02T04:35:51;48596.78;;;-141.90;47.56
5298;BME280;14738;42.668;23.250;2023-02-02T04:38:17;48580.88;;;-141.90;47.63
5298;BME280;14738;42.668;23.250;2023-02-02T04:40:44;48576.91;;;-141.90;47.33
5298;BME280;14738;42.668;23.250;2023-02-02T04:43:10;48592.81;;;-141.90;46.63
5298;BME280;14738;42.668;23.250;2023-02-02T04:45:35;48570.97;;;-141.90;47.24
5298;BME280;14738;42.668;23.250;2023-02-02T04:48:01;48568.97;;;-141.90;47.58
5298;BME280;14738;42.668;23.250;2023-02-02T04:50:27;48600.75;;;-141.90;47.10
5298;BME280;14738;42.668;23.250;2023-02-02T04:52:53;48565.00;;;-141.90;47.16
5298;BME280;14738;42.668;23.250;2023-02-02T04:55:18;48578.91;;;-141.90;47.36
5298;BME280;14738;42.668;23.250;2023-02-02T04:57:43;48584.84;;;-141.90;47.55
5298;BME280;14738;42.668;23.250;2023-02-02T05:00:10;48545.16;;;-141.90;47.32
5298;BME280;14738;42.668;23.250;2023-02-02T05:02:37;48565.00;;;-141.90;47.49
5298;BME280;14738;42.668;23.250;2023-02-02T05:05:04;48567.00;;;-141.90;47.16
5298;BME280;14738;42.668;23.250;2023-02-02T05:07:30;48612.66;;;-141.90;47.21
5298;BME280;14738;42.668;23.250;2023-02-02T05:09:56;48584.84;;;-141.90;46.78
5298;BME280;14738;42.668;23.250;2023-02-02T05:12:21;48568.97;;;-141.90;46.55
5298;BME280;14738;42.668;23.250;2023-02-02T05:14:46;48553.09;;;-141.90;46.47
5298;BME280;14738;42.668;23.250;2023-02-02T05:17:12;48557.06;;;-141.90;46.54
5298;BME280;14738;42.668;23.250;2023-02-02T05:19:37;48567.00;;;-141.90;46.79
5298;BME280;14738;42.668;23.250;2023-02-02T05:22:02;48561.03;;;-141.90;46.47
5298;BME280;14738;42.668;23.250;2023-02-02T05:24:28;48574.94;;;-141.90;46.64
5298;BME280;14738;42.668;23.250;2023-02-02T05:26:53;48547.13;;;-141.90;46.77
5298;BME280;14738;42.668;23.250;2023-02-02T05:29:23;48568.97;;;-141.90;46.51
5298;BME280;14738;42.668;23.250;2023-02-02T05:31:48;48582.88;;;-141.90;46.59
5298;BME280;14738;42.668;23.250;2023-02-02T05:34:14;48582.88;;;-141.90;46.74
5298;BME280;14738;42.668;23.250;2023-02-02T05:36:39;48580.88;;;-141.90;45.49
5298;BME280;14738;42.668;23.250;2023-02-02T05:39:05;48553.09;;;-141.90;44.97
5298;BME280;14738;42.668;23.250;2023-02-02T05:41:30;48568.97;;;-141.90;45.21
5298;BME280;14738;42.668;23.250;2023-02-02T05:43:58;48547.13;;;-141.90;45.27
5298;BME280;14738;42.668;23.250;2023-02-02T05:46:23;48582.88;;;-141.90;45.37
5298;BME280;14738;42.668;23.250;2023-02-02T05:48:49;48559.06;;;-141.90;45.26
5298;BME280;14738;42.668;23.250;2023-02-02T05:51:17;48557.06;;;-141.90;45.01
5298;BME280;14738;42.668;23.250;2023-02-02T05:53:44;48567.00;;;-141.90;45.04
5298;BME280;14738;42.668;23.250;2023-02-02T05:56:10;48553.09;;;-141.90;44.19
5298;BME280;14738;42.668;23.250;2023-02-02T05:58:35;48541.19;;;-141.90;43.46
5298;BME280;14738;42.668;23.250;2023-02-02T06:01:01;48553.09;;;-141.90;42.63
5298;BME280;14738;42.668;23.250;2023-02-02T06:03:27;48561.03;;;-141.90;42.34
5298;BME280;14738;42.668;23.250;2023-02-02T06:05:52;48533.25;;;-141.90;41.79
5298;BME280;14738;42.668;23.250;2023-02-02T06:08:17;48541.19;;;-141.90;41.89
5298;BME280;14738;42.668;23.250;2023-02-02T06:10:43;48549.13;;;-141.90;41.97
5298;BME280;14738;42.668;23.250;2023-02-02T06:13:09;48517.34;;;-141.90;41.99
5298;BME280;14738;42.668;23.250;2023-02-02T06:15:34;48541.19;;;-141.90;42.29
5298;BME280;14738;42.668;23.250;2023-02-02T06:18:00;48547.13;;;-141.90;41.53
5298;BME280;14738;42.668;23.250;2023-02-02T06:20:26;48535.22;;;-141.90;40.84
5298;BME280;14738;42.668;23.250;2023-02-02T06:22:52;48541.19;;;-141.90;39.92
5298;BME280;14738;42.668;23.250;2023-02-02T06:25:17;48525.31;;;-141.90;39.97
5298;BME280;14738;42.668;23.250;2023-02-02T06:27:42;48559.06;;;-141.90;40.20
5298;BME280;14738;42.668;23.250;2023-02-02T06:30:12;48549.13;;;-141.90;40.91
5298;BME280;14738;42.668;23.250;2023-02-02T06:32:37;48517.34;;;-141.90;40.11
5298;BME280;14738;42.668;23.250;2023-02-02T06:35:04;48561.03;;;-141.90;40.16
5298;BME280;14738;42.668;23.250;2023-02-02T06:37:29;48533.25;;;-141.90;40.57
5298;BME280;14738;42.668;23.250;2023-02-02T06:39:55;48553.09;;;-141.90;41.39
5298;BME280;14738;42.668;23.250;2023-02-02T06:42:20;48535.22;;;-141.90;40.93
5298;BME280;14738;42.668;23.250;2023-02-02T06:44:46;48541.19;;;-141.90;41.42
5298;BME280;14738;42.668;23.250;2023-02-02T06:47:11;48513.38;;;-141.90;41.10
5298;BME280;14738;42.668;23.250;2023-02-02T06:49:36;48541.19;;;-141.90;40.44
5298;BME280;14738;42.668;23.250;2023-02-02T06:52:02;48557.06;;;-141.90;40.85
5298;BME280;14738;42.668;23.250;2023-02-02T06:54:27;48549.13;;;-141.90;40.96
5298;BME280;14738;42.668;23.250;2023-02-02T06:56:52;48557.06;;;-141.90;40.87
5298;BME280;14738;42.668;23.250;2023-02-02T06:59:20;48565.00;;;-141.90;40.44
5298;BME280;14738;42.668;23.250;2023-02-02T07:01:48;48537.22;;;-141.90;41.06
5298;BME280;14738;42.668;23.250;2023-02-02T07:04:16;48517.34;;;-141.90;40.82
5298;BME280;14738;42.668;23.250;2023-02-02T07:06:41;48525.31;;;-141.90;40.39
5298;BME280;14738;42.668;23.250;2023-02-02T07:09:07;48521.34;;;-141.90;40.12
5298;BME280;14738;42.668;23.250;2023-02-02T07:11:32;48533.25;;;-141.90;40.03
5298;BME280;14738;42.668;23.250;2023-02-02T07:14:00;48503.47;;;-141.90;40.25
5298;BME280;14738;42.668;23.250;2023-02-02T07:16:25;48523.31;;;-141.90;39.57
5298;BME280;14738;42.668;23.250;2023-02-02T07:18:51;48533.25;;;-141.90;39.70
5298;BME280;14738;42.668;23.250;2023-02-02T07:21:20;48525.31;;;-141.90;39.66
5298;BME280;14738;42.668;23.250;2023-02-02T07:23:45;48529.28;;;-141.90;39.68
5298;BME280;14738;42.668;23.250;2023-02-02T07:26:12;48527.28;;;-141.90;39.44
5298;BME280;14738;42.668;23.250;2023-02-02T07:28:38;48521.34;;;-141.90;38.92
5298;BME280;14738;42.668;23.250;2023-02-02T07:33:40;48529.28;;;-141.90;38.73
5298;BME280;14738;42.668;23.250;2023-02-02T07:36:12;48521.34;;;-141.90;39.08
5298;BME280;14738;42.668;23.250;2023-02-02T07:38:41;48509.41;;;-141.90;37.75
5298;BME280;14738;42.668;23.250;2023-02-02T07:41:06;48521.34;;;-141.90;37.77
5298;BME280;14738;42.668;23.250;2023-02-02T07:43:32;48483.59;;;-141.90;37.60
5298;BME280;14738;42.668;23.250;2023-02-02T07:46:02;48517.34;;;-141.90;36.82
5298;BME280;14738;42.668;23.250;2023-02-02T07:48:29;48509.41;;;-141.90;37.34
5298;BME280;14738;42.668;23.250;2023-02-02T07:51:01;48479.63;;;-141.90;36.54
5298;BME280;14738;42.668;23.250;2023-02-02T07:53:27;48481.63;;;-141.90;35.61
5298;BME280;14738;42.668;23.250;2023-02-02T07:55:53;48487.56;;;-141.90;35.53
5298;BME280;14738;42.668;23.250;2023-02-02T07:58:18;48501.47;;;-141.90;35.14
5298;BME280;14738;42.668;23.250;2023-02-02T08:00:44;48507.44;;;-141.90;35.54
5298;BME280;14738;42.668;23.250;2023-02-02T08:03:11;48485.59;;;-141.90;35.98
5298;BME280;14738;42.668;23.250;2023-02-02T08:05:36;48519.34;;;-141.90;35.30
5298;BME280;14738;42.668;23.250;2023-02-02T08:08:02;48465.75;;;-141.90;35.98
5298;BME280;14738;42.668;23.250;2023-02-02T08:10:28;48493.53;;;-141.90;35.49
5298;BME280;14738;42.668;23.250;2023-02-02T08:12:53;48497.50;;;-141.90;35.26
5298;BME280;14738;42.668;23.250;2023-02-02T08:15:18;48517.34;;;-141.90;35.21
5298;BME280;14738;42.668;23.250;2023-02-02T08:17:45;48503.47;;;-141.90;35.14
5298;BME280;14738;42.668;23.250;2023-02-02T08:20:11;48493.53;;;-141.90;35.26
5298;BME280;14738;42.668;23.250;2023-02-02T08:22:38;48497.50;;;-141.90;35.26
5298;BME280;14738;42.668;23.250;2023-02-02T08:25:04;48507.44;;;-141.90;35.70
5298;BME280;14738;42.668;23.250;2023-02-02T08:27:29;48497.50;;;-141.90;36.10
5298;BME280;14738;42.668;23.250;2023-02-02T08:29:55;48465.75;;;-141.90;36.32
5298;BME280;14738;42.668;23.250;2023-02-02T08:32:20;48497.50;;;-141.90;37.05
5298;BME280;14738;42.668;23.250;2023-02-02T08:34:47;48497.50;;;-141.90;37.11
5298;BME280;14738;42.668;23.250;2023-02-02T08:37:13;48511.41;;;-141.90;37.75
5298;BME280;14738;42.668;23.250;2023-02-02T08:39:38;48493.53;;;-141.90;37.93
5298;BME280;14738;42.668;23.250;2023-02-02T08:42:04;48481.63;;;-141.90;37.08
5298;BME280;14738;42.668;23.250;2023-02-02T08:44:48;48481.63;;;-141.90;37.46
5298;BME280;14738;42.668;23.250;2023-02-02T08:47:13;48501.47;;;-141.90;36.80
5298;BME280;14738;42.668;23.250;2023-02-02T08:49:39;48485.59;;;-141.90;36.75
5298;BME280;14738;42.668;23.250;2023-02-02T08:52:06;48469.72;;;-141.90;35.91
5298;BME280;14738;42.668;23.250;2023-02-02T08:54:32;48493.53;;;-141.90;36.27
5298;BME280;14738;42.668;23.250;2023-02-02T08:56:57;48483.59;;;-141.90;36.30
5298;BME280;14738;42.668;23.250;2023-02-02T08:59:23;48491.56;;;-141.90;36.89
5298;BME280;14738;42.668;23.250;2023-02-02T09:01:48;48485.59;;;-141.90;37.29
5298;BME280;14738;42.668;23.250;2023-02-02T09:04:16;48513.38;;;-141.90;36.98
5298;BME280;14738;42.668;23.250;2023-02-02T09:06:42;48471.69;;;-141.90;36.81
5298;BME280;14738;42.668;23.250;2023-02-02T09:09:11;48455.81;;;-141.90;37.63
5298;BME280;14738;42.668;23.250;2023-02-02T09:11:37;48511.41;;;-141.90;36.60
5298;BME280;14738;42.668;23.250;2023-02-02T09:14:02;48509.41;;;-141.90;36.37
5298;BME280;14738;42.668;23.250;2023-02-02T09:16:31;48497.50;;;-141.90;36.60
5298;BME280;14738;42.668;23.250;2023-02-02T09:18:58;48493.53;;;-141.90;36.04
5298;BME280;14738;42.668;23.250;2023-02-02T09:21:23;48477.66;;;-141.90;36.68
5298;BME280;14738;42.668;23.250;2023-02-02T09:23:57;48481.63;;;-141.90;36.23
5298;BME280;14738;42.668;23.250;2023-02-02T09:26:27;48493.53;;;-141.90;36.55
5298;BME280;14738;42.668;23.250;2023-02-02T09:28:58;48487.56;;;-141.90;36.91
5298;BME280;14738;42.668;23.250;2023-02-02T09:31:26;48483.59;;;-141.90;35.69
5298;BME280;14738;42.668;23.250;2023-02-02T09:33:52;48493.53;;;-141.90;35.90
5298;BME280;14738;42.668;23.250;2023-02-02T09:36:22;48457.81;;;-141.90;35.61
5298;BME280;14738;42.668;23.250;2023-02-02T09:38:48;48475.66;;;-141.90;36.02
5298;BME280;14738;42.668;23.250;2023-02-02T09:49:24;48489.56;;;-141.90;34.75
5298;BME280;14738;42.668;23.250;2023-02-02T09:51:58;48471.69;;;-141.90;34.52
5298;BME280;14738;42.668;23.250;2023-02-02T09:54:33;48481.63;;;-141.90;35.19
5298;BME280;14738;42.668;23.250;2023-02-02T09:57:02;48463.75;;;-141.90;35.03
5298;BME280;14738;42.668;23.250;2023-02-02T09:59:35;48465.75;;;-141.90;35.08
5298;BME280;14738;42.668;23.250;2023-02-02T10:02:22;48445.88;;;-141.90;35.05
5298;BME280;14738;42.668;23.250;2023-02-02T10:05:01;48451.84;;;-141.90;33.53
5298;BME280;14738;42.668;23.250;2023-02-02T10:07:37;48481.63;;;-141.90;34.48
5298;BME280;14738;42.668;23.250;2023-02-02T10:10:23;48473.69;;;-141.90;34.58
5298;BME280;14738;42.668;23.250;2023-02-02T10:13:14;48477.66;;;-141.90;34.32
5298;BME280;14738;42.668;23.250;2023-02-02T10:15:55;48481.63;;;-141.90;33.91
5298;BME280;14738;42.668;23.250;2023-02-02T10:18:50;48469.72;;;-141.90;33.25
5298;BME280;14738;42.668;23.250;2023-02-02T10:21:38;48497.50;;;-141.90;34.03
5298;BME280;14738;42.668;23.250;2023-02-02T10:26:42;48465.75;;;-141.90;33.64
5298;BME280;14738;42.668;23.250;2023-02-02T10:34:15;48459.78;;;-141.90;32.99
5298;BME280;14738;42.668;23.250;2023-02-02T10:44:56;48453.81;;;-141.90;32.10
5298;BME280;14738;42.668;23.250;2023-02-02T10:47:27;48461.78;;;-141.90;33.09
5298;BME280;14738;42.668;23.250;2023-02-02T10:50:19;48453.81;;;-141.90;33.83
5298;BME280;14738;42.668;23.250;2023-02-02T10:52:53;48485.59;;;-141.90;33.59
5298;BME280;14738;42.668;23.250;2023-02-02T10:55:21;48469.72;;;-141.90;33.64
5298;BME280;14738;42.668;23.250;2023-02-02T11:02:57;48432.00;;;-141.90;32.95
5298;BME280;14738;42.668;23.250;2023-02-02T11:05:27;48471.69;;;-141.90;32.50
5298;BME280;14738;42.668;23.250;2023-02-02T11:08:27;48469.72;;;-141.90;32.35
5298;BME280;14738;42.668;23.250;2023-02-02T11:10:54;48477.66;;;-141.90;32.38
5298;BME280;14738;42.668;23.250;2023-02-02T11:13:31;48475.66;;;-141.90;32.77
5298;BME280;14738;42.668;23.250;2023-02-02T11:18:42;48481.63;;;-141.90;33.02
5298;BME280;14738;42.668;23.250;2023-02-02T11:21:27;48489.56;;;-141.90;33.29
5298;BME280;14738;42.668;23.250;2023-02-02T11:26:25;48511.41;;;-141.90;32.65
5298;BME280;14738;42.668;23.250;2023-02-02T11:28:53;48475.66;;;-141.90;32.82
5298;BME280;14738;42.668;23.250;2023-02-02T11:31:34;48475.66;;;-141.90;32.26
5298;BME280;14738;42.668;23.250;2023-02-02T11:36:33;48465.75;;;-141.90;32.10
5298;BME280;14738;42.668;23.250;2023-02-02T11:39:20;48473.69;;;-141.90;32.35
5298;BME280;14738;42.668;23.250;2023-02-02T11:41:46;48493.53;;;-141.90;33.48
5298;BME280;14738;42.668;23.250;2023-02-02T11:44:23;48491.56;;;-141.90;32.95
5298;BME280;14738;42.668;23.250;2023-02-02T11:46:50;48469.72;;;-141.90;32.40
5298;BME280;14738;42.668;23.250;2023-02-02T11:49:17;48461.78;;;-141.90;32.85
5298;BME280;14738;42.668;23.250;2023-02-02T11:51:57;48475.66;;;-141.90;32.33
5298;BME280;14738;42.668;23.250;2023-02-02T11:54:35;48473.69;;;-141.90;33.93
5298;BME280;14738;42.668;23.250;2023-02-02T11:57:04;48489.56;;;-141.90;33.55
5298;BME280;14738;42.668;23.250;2023-02-02T11:59:40;48499.50;;;-141.90;33.73
5298;BME280;14738;42.668;23.250;2023-02-02T12:04:37;48461.78;;;-141.90;32.82
5298;BME280;14738;42.668;23.250;2023-02-02T12:07:17;48453.81;;;-141.90;32.62
5298;BME280;14738;42.668;23.250;2023-02-02T12:09:46;48469.72;;;-141.90;32.73
5298;BME280;14738;42.668;23.250;2023-02-02T12:12:17;48449.84;;;-141.90;33.03
5298;BME280;14738;42.668;23.250;2023-02-02T12:15:01;48459.78;;;-141.90;33.58
5298;BME280;14738;42.668;23.250;2023-02-02T12:17:51;48455.81;;;-141.90;32.45
5298;BME280;14738;42.668;23.250;2023-02-02T12:20:39;48473.69;;;-141.90;32.53
5298;BME280;14738;42.668;23.250;2023-02-02T12:31:13;48477.66;;;-141.90;30.34
5298;BME280;14738;42.668;23.250;2023-02-02T12:50:30;48453.81;;;-141.90;31.02
5298;BME280;14738;42.668;23.250;2023-02-02T12:53:14;48489.56;;;-141.90;31.36
5298;BME280;14738;42.668;23.250;2023-02-02T12:56:01;48479.63;;;-141.90;31.66
5298;BME280;14738;42.668;23.250;2023-02-02T13:01:23;48485.59;;;-141.90;31.97
5298;BME280;14738;42.668;23.250;2023-02-02T13:07:11;48441.91;;;-141.90;32.31
5298;BME280;14738;42.668;23.250;2023-02-02T13:12:28;48457.81;;;-141.90;31.85
5298;BME280;14738;42.668;23.250;2023-02-02T13:14:59;48465.75;;;-141.90;31.25
5298;BME280;14738;42.668;23.250;2023-02-02T13:20:15;48465.75;;;-141.90;31.85
5298;BME280;14738;42.668;23.250;2023-02-02T13:22:44;48451.84;;;-141.90;31.43
5298;BME280;14738;42.668;23.250;2023-02-02T13:25:48;48473.69;;;-141.90;31.24
5298;BME280;14738;42.668;23.250;2023-02-02T13:28:34;48465.75;;;-141.90;31.25
5298;BME280;14738;42.668;23.250;2023-02-02T13:31:04;48457.81;;;-141.90;31.42
5298;BME280;14738;42.668;23.250;2023-02-02T13:33:34;48463.75;;;-141.90;31.53
5298;BME280;14738;42.668;23.250;2023-02-02T13:36:04;48463.75;;;-141.90;31.82
5298;BME280;14738;42.668;23.250;2023-02-02T13:38:32;48489.56;;;-141.90;32.22
5298;BME280;14738;42.668;23.250;2023-02-02T13:41:01;48469.72;;;-141.90;32.45
5298;BME280;14738;42.668;23.250;2023-02-02T13:43:53;48489.56;;;-141.90;32.75
5298;BME280;14738;42.668;23.250;2023-02-02T14:00:22;48479.63;;;-141.90;35.67
5298;BME280;14738;42.668;23.250;2023-02-02T14:03:01;48463.75;;;-141.90;36.91
5298;BME280;14738;42.668;23.250;2023-02-02T14:06:08;48511.41;;;-141.90;37.88
5298;BME280;14738;42.668;23.250;2023-02-02T14:08:34;48483.59;;;-141.90;37.75
5298;BME280;14738;42.668;23.250;2023-02-02T14:11:03;48449.84;;;-141.90;38.05
5298;BME280;14738;42.668;23.250;2023-02-02T14:18:58;48501.47;;;-141.90;38.82
5298;BME280;14738;42.668;23.250;2023-02-02T14:24:42;48513.38;;;-141.90;39.87
5298;BME280;14738;42.668;23.250;2023-02-02T14:26:47;48461.78;;;-141.90;40.17
5298;BME280;14738;42.668;23.250;2023-02-02T14:37:25;48501.47;;;-141.90;42.89
5298;BME280;14738;42.668;23.250;2023-02-02T14:43:10;48481.63;;;-141.90;45.91
5298;BME280;14738;42.668;23.250;2023-02-02T14:49:13;48525.31;;;-141.90;53.16
5298;BME280;14738;42.668;23.250;2023-02-02T14:51:50;48503.47;;;-141.90;57.46
5298;BME280;14738;42.668;23.250;2023-02-02T14:54:26;48527.28;;;-141.90;69.86
5298;BME280;14738;42.668;23.250;2023-02-02T14:57:18;48517.34;;;-141.90;82.46
5298;BME280;14738;42.668;23.250;2023-02-02T14:59:46;48533.25;;;-141.90;96.28
5298;BME280;14738;42.668;23.250;2023-02-02T15:02:21;48501.47;;;-141.90;100.00
5298;BME280;14738;42.668;23.250;2023-02-02T15:04:48;48537.22;;;-141.90;100.00
5298;BME280;14738;42.668;23.250;2023-02-02T15:09:49;48545.16;;;-141.90;100.00
5298;BME280;14738;42.668;23.250;2023-02-02T15:12:48;48545.16;;;-141.90;100.00
5298;BME280;14738;42.668;23.250;2023-02-02T15:17:56;48561.03;;;-141.90;100.00
5298;BME280;14738;42.668;23.250;2023-02-02T15:20:38;48567.00;;;-141.90;100.00
5298;BME280;14738;42.668;23.250;2023-02-02T15:23:23;48547.13;;;-141.90;100.00
5298;BME280;14738;42.668;23.250;2023-02-02T15:28:56;48567.00;;;-141.90;100.00
5298;BME280;14738;42.668;23.250;2023-02-02T15:31:35;48557.06;;;-141.90;100.00